Time;durP1;ratioP1;P1;durP2;ratioP2;P2;SDS_P1;SDS_P2;PMS_P1;PMS_P2;Temp;Humidity;BMP_temperature;BMP_pressure;BME280_temperature;BME280_humidity;BME280_pressure;Samples;Min_cycle;Max_cycle;Signal;HPM_P1;HPM_P2
2022/04/11 00:01:01;;;;;;;7.78;4.18;;;;;;;2.69;100.00;94432.75;5063845;28;20098;-44
2022/04/11 00:03:29;;;;;;;6.40;4.50;;;;;;;2.78;100.00;94459.88;5063954;28;20048;-46
2022/04/11 00:05:56;;;;;;;6.65;4.78;;;;;;;2.78;100.00;94446.25;5063407;28;20048;-44
2022/04/11 00:08:23;;;;;;;5.13;3.00;;;;;;;2.76;100.00;94459.28;5063775;28;20076;-46
2022/04/11 00:10:50;;;;;;;6.82;3.95;;;;;;;2.76;100.00;94459.28;5063097;28;20056;-47
2022/04/11 00:13:17;;;;;;;5.68;3.90;;;;;;;2.79;100.00;94458.91;5063757;28;20052;-45
2022/04/11 00:15:44;;;;;;;8.02;4.68;;;;;;;2.79;100.00;94469.19;5063616;28;21080;-44
2022/04/11 00:18:11;;;;;;;6.03;3.58;;;;;;;2.74;100.00;94465.59;5064099;28;20051;-44
2022/04/11 00:20:37;;;;;;;10.10;4.03;;;;;;;2.77;100.00;94480.66;5063366;28;20041;-47
2022/04/11 00:23:06;;;;;;;6.82;4.18;;;;;;;2.69;100.00;94468.75;5063789;28;20537;-47
2022/04/11 00:25:34;;;;;;;4.78;3.10;;;;;;;2.74;100.00;94474.13;5063579;28;20048;-46
2022/04/11 00:28:00;;;;;;;6.32;3.00;;;;;;;2.69;100.00;94489.31;5062621;28;20056;-45
2022/04/11 00:30:27;;;;;;;6.53;4.30;;;;;;;2.75;100.00;94488.56;5062524;28;20391;-45
2022/04/11 00:32:54;;;;;;;6.47;3.60;;;;;;;2.72;100.00;94494.09;5063821;28;20044;-45
2022/04/11 00:35:21;;;;;;;4.68;2.70;;;;;;;2.62;100.00;94483.34;5062236;28;20040;-45
2022/04/11 00:37:47;;;;;;;10.32;3.10;;;;;;;2.67;100.00;94497.22;5062313;28;20055;-44
2022/04/11 00:40:14;;;;;;;6.68;3.55;;;;;;;2.67;100.00;94496.44;5063551;28;20048;-47
2022/04/11 00:42:42;;;;;;;7.40;3.20;;;;;;;2.63;100.00;94500.38;5062292;28;20052;-46
2022/04/11 00:45:09;;;;;;;8.63;4.45;;;;;;;2.69;100.00;94507.31;5063545;28;20521;-46
2022/04/11 00:47:35;;;;;;;5.38;3.40;;;;;;;2.64;100.00;94509.66;5063286;28;20041;-45
2022/04/11 00:50:08;;;;;;;4.95;3.40;;;;;;;2.61;100.00;94510.03;5063229;28;20418;-46
2022/04/11 00:52:55;;;;;;;5.15;2.90;;;;;;;2.65;100.00;94524.91;5062515;28;20051;-46
2022/04/11 00:55:24;;;;;;;4.07;3.05;;;;;;;2.62;100.00;94529.63;5061521;28;20172;-48
2022/04/11 00:57:51;;;;;;;5.75;3.60;;;;;;;2.56;100.00;94520.13;5062591;28;20049;-47
2022/04/11 01:00:19;;;;;;;4.72;2.85;;;;;;;2.59;100.00;94530.00;5061728;28;20051;-44
2022/04/11 01:02:46;;;;;;;4.95;2.67;;;;;;;2.63;100.00;94531.25;5061330;28;20565;-43
2022/04/11 01:05:13;;;;;;;12.60;3.63;;;;;;;2.59;100.00;94530.00;5062784;28;20044;-44
2022/04/11 01:07:42;;;;;;;5.13;2.97;;;;;;;2.61;100.00;94544.28;5063596;28;20044;-44
2022/04/11 01:10:09;;;;;;;3.45;2.40;;;;;;;2.59;100.00;94535.16;5063631;28;20123;-44
2022/04/11 01:12:37;;;;;;;5.38;3.22;;;;;;;2.52;100.00;94547.16;5061475;28;20048;-43
2022/04/11 01:15:05;;;;;;;7.22;3.35;;;;;;;2.54;100.00;94560.63;5061822;28;20571;-46
2022/04/11 01:17:37;;;;;;;6.30;3.47;;;;;;;2.58;100.00;94564.44;5062110;28;20127;-43
2022/04/11 01:20:10;;;;;;;6.57;3.75;;;;;;;2.53;100.00;94566.75;5062635;28;20464;-44
2022/04/11 01:22:41;;;;;;;6.93;3.25;;;;;;;2.48;100.00;94565.56;5063522;28;20047;-47
2022/04/11 01:25:09;;;;;;;5.03;3.35;;;;;;;2.47;100.00;94563.94;5066546;28;20040;-44
2022/04/11 01:27:38;;;;;;;7.43;3.78;;;;;;;2.43;100.00;94557.59;5063769;28;20044;-47
2022/04/11 01:30:07;;;;;;;4.25;3.00;;;;;;;2.42;100.00;94576.56;5065495;28;20044;-45
2022/04/11 01:32:39;;;;;;;5.63;2.63;;;;;;;2.45;100.00;94580.56;5065369;28;20040;-44
2022/04/11 01:35:21;;;;;;;5.40;2.97;;;;;;;2.43;100.00;94567.88;5065827;28;20052;-49
2022/04/11 01:37:50;;;;;;;3.33;1.80;;;;;;;2.32;100.00;94570.94;5065123;28;20047;-45
2022/04/11 01:40:17;;;;;;;4.75;3.17;;;;;;;2.39;100.00;94584.63;5065154;28;20067;-43
2022/04/11 01:42:44;;;;;;;7.25;2.85;;;;;;;2.37;100.00;94578.88;5065172;28;20055;-44
2022/04/11 01:45:13;;;;;;;6.38;2.90;;;;;;;2.39;100.00;94594.13;5065038;28;20055;-45
2022/04/11 01:47:42;;;;;;;5.05;2.65;;;;;;;2.40;100.00;94593.94;5066373;28;20041;-45
2022/04/11 01:50:10;;;;;;;4.22;2.30;;;;;;;2.38;100.00;94601.06;5065180;28;20502;-45
2022/04/11 01:52:37;;;;;;;5.05;2.97;;;;;;;2.39;100.00;94601.84;5065948;28;20040;-45
2022/04/11 01:55:04;;;;;;;3.45;2.05;;;;;;;2.32;100.00;94612.06;5064876;28;20059;-43
2022/04/11 01:57:48;;;;;;;4.00;2.37;;;;;;;2.24;100.00;94594.22;5065098;28;20049;-44
2022/04/11 02:00:15;;;;;;;2.60;1.55;;;;;;;2.33;100.00;94623.94;5065159;28;20476;-43
2022/04/11 02:02:44;;;;;;;3.67;2.28;;;;;;;2.36;100.00;94628.72;5063807;28;20083;-43
2022/04/11 02:05:11;;;;;;;2.22;1.48;;;;;;;2.30;100.00;94624.31;5064650;28;20170;-42
2022/04/11 02:07:38;;;;;;;2.58;1.08;;;;;;;2.30;100.00;94629.44;5064869;28;20129;-45
2022/04/11 02:10:06;;;;;;;2.42;1.38;;;;;;;2.29;100.00;94643.28;5063756;28;20056;-44
2022/04/11 02:12:34;;;;;;;2.92;1.38;;;;;;;2.27;100.00;94645.25;5065049;28;20044;-47
2022/04/11 02:15:00;;;;;;;1.33;0.90;;;;;;;2.29;100.00;94653.56;5065179;28;20052;-44
2022/04/11 02:17:27;;;;;;;1.35;1.02;;;;;;;2.27;100.00;94660.66;5065739;28;20101;-46
2022/04/11 02:19:54;;;;;;;1.35;0.80;;;;;;;2.22;100.00;94657.84;5065767;28;20044;-43
2022/04/11 02:22:21;;;;;;;0.98;0.57;;;;;;;2.24;100.00;94661.03;5064312;28;20429;-43
2022/04/11 02:24:47;;;;;;;0.98;0.40;;;;;;;2.21;100.00;94671.66;5066182;28;20079;-46
2022/04/11 02:27:14;;;;;;;0.70;0.40;;;;;;;2.21;100.00;94674.22;5063847;28;20044;-43
2022/04/11 02:29:41;;;;;;;2.28;1.35;;;;;;;2.19;100.00;94676.19;5063661;28;20052;-44
2022/04/11 02:32:08;;;;;;;2.05;1.13;;;;;;;2.14;100.00;94671.59;5065444;28;20051;-46
2022/04/11 02:34:35;;;;;;;1.00;0.60;;;;;;;2.14;100.00;94681.06;5067022;28;20040;-48
2022/04/11 02:37:02;;;;;;;1.27;0.80;;;;;;;2.12;100.00;94677.91;5066374;28;20086;-42
2022/04/11 02:39:30;;;;;;;0.82;0.43;;;;;;;2.18;100.00;94690.00;5064537;28;20131;-43
2022/04/11 02:41:57;;;;;;;1.73;0.90;;;;;;;2.13;100.00;94684.66;5065312;28;20127;-43
2022/04/11 02:44:24;;;;;;;1.13;0.70;;;;;;;2.05;100.00;94694.06;5063807;28;20051;-45
2022/04/11 02:46:51;;;;;;;1.10;0.80;;;;;;;2.07;100.00;94697.22;5064429;28;20045;-44
2022/04/11 02:49:18;;;;;;;1.00;0.50;;;;;;;2.09;100.00;94700.41;5064350;28;20048;-47
2022/04/11 02:52:08;;;;;;;1.13;1.02;;;;;;;2.06;100.00;94700.75;5058503;28;20040;-43
2022/04/11 02:54:36;;;;;;;1.13;0.57;;;;;;;2.09;100.00;94699.63;5064565;28;20052;-50
2022/04/11 02:57:03;;;;;;;1.90;0.55;;;;;;;2.13;100.00;94711.13;5063775;28;20037;-44
2022/04/11 02:59:32;;;;;;;0.40;0.30;;;;;;;2.07;100.00;94715.22;5063992;28;20052;-46
2022/04/11 03:02:00;;;;;;;2.03;0.93;;;;;;;2.12;100.00;94724.16;5062801;28;20052;-43
2022/04/11 03:04:28;;;;;;;0.82;0.52;;;;;;;2.14;100.00;94738.41;5063571;28;20045;-43
2022/04/11 03:07:05;;;;;;;1.35;0.98;;;;;;;2.09;100.00;94744.09;5063703;28;20510;-43
2022/04/11 03:09:32;;;;;;;1.35;0.77;;;;;;;2.10;100.00;94735.38;5063484;28;20052;-44
2022/04/11 03:11:59;;;;;;;1.23;0.77;;;;;;;2.17;100.00;94742.41;5063395;28;20048;-46
2022/04/11 03:14:28;;;;;;;4.15;0.90;;;;;;;2.15;100.00;94746.91;5063605;28;20059;-44
2022/04/11 03:16:55;;;;;;;1.30;0.55;;;;;;;2.16;100.00;94751.06;5063476;28;20423;-45
2022/04/11 03:19:22;;;;;;;1.70;0.80;;;;;;;2.12;100.00;94747.28;5063768;28;20041;-43
2022/04/11 03:21:50;;;;;;;2.08;0.90;;;;;;;2.17;100.00;94753.47;5062582;28;20122;-44
2022/04/11 03:24:17;;;;;;;1.25;0.82;;;;;;;2.19;100.00;94766.91;5064139;28;20122;-46
2022/04/11 03:26:44;;;;;;;11.95;3.75;;;;;;;2.21;100.00;94754.69;5062441;28;20479;-45
2022/04/11 03:29:18;;;;;;;1.40;0.80;;;;;;;2.22;100.00;94770.91;5061527;28;20048;-45
2022/04/11 03:31:46;;;;;;;1.15;0.60;;;;;;;2.19;100.00;94774.63;5062760;28;20041;-44
2022/04/11 03:34:14;;;;;;;1.55;0.93;;;;;;;2.14;100.00;94778.72;5061909;28;20806;-44
2022/04/11 03:36:41;;;;;;;1.67;1.40;;;;;;;2.18;100.00;94777.38;5061006;28;20045;-46
2022/04/11 03:39:09;;;;;;;1.67;1.00;;;;;;;2.19;100.00;94778.97;5061448;28;20534;-44
2022/04/11 03:41:38;;;;;;;1.45;0.88;;;;;;;2.17;100.00;94783.50;5061817;28;20133;-45
2022/04/11 03:44:12;;;;;;;1.50;0.80;;;;;;;2.19;100.00;94791.81;5063415;28;20521;-44
2022/04/11 03:46:41;;;;;;;2.70;0.63;;;;;;;2.17;100.00;94789.44;5061639;28;20052;-45
2022/04/11 03:49:11;;;;;;;3.53;1.25;;;;;;;2.19;100.00;94792.63;5063106;28;20198;-45
2022/04/11 03:51:38;;;;;;;1.27;0.82;;;;;;;2.24;100.00;94799.81;5062955;28;20047;-42
2022/04/11 03:54:05;;;;;;;1.17;0.90;;;;;;;2.21;100.00;94805.28;5062486;28;20041;-42
2022/04/11 03:56:32;;;;;;;1.80;0.85;;;;;;;2.13;100.00;94792.56;5062888;28;20040;-47
2022/04/11 03:59:02;;;;;;;3.50;1.60;;;;;;;2.23;100.00;94805.91;5063119;28;20053;-45
2022/04/11 04:01:29;;;;;;;1.27;1.10;;;;;;;2.25;100.00;94811.66;5062316;28;20051;-43
2022/04/11 04:03:56;;;;;;;0.98;0.88;;;;;;;2.24;100.00;94817.78;5061554;28;20163;-43
2022/04/11 04:06:23;;;;;;;1.40;0.95;;;;;;;2.24;100.00;94816.00;5060762;28;20044;-42
2022/04/11 04:08:50;;;;;;;2.22;1.55;;;;;;;2.25;100.00;94827.06;5062551;28;20041;-43
2022/04/11 04:11:24;;;;;;;1.80;1.30;;;;;;;2.24;100.00;94821.16;5062569;28;20078;-46
2022/04/11 04:14:06;;;;;;;1.85;0.90;;;;;;;2.21;100.00;94825.84;5062259;28;20045;-45
2022/04/11 04:16:37;;;;;;;2.22;1.40;;;;;;;2.23;100.00;94823.88;5061578;28;20133;-43
2022/04/11 04:19:07;;;;;;;2.85;0.95;;;;;;;2.26;100.00;94828.69;5061625;28;20054;-44
2022/04/11 04:21:35;;;;;;;2.50;1.70;;;;;;;2.27;100.00;94831.06;5061816;28;20102;-44
2022/04/11 04:24:04;;;;;;;2.38;1.33;;;;;;;2.28;100.00;94831.88;5062525;28;20056;-44
2022/04/11 04:26:34;;;;;;;2.55;1.83;;;;;;;2.29;100.00;94838.63;5062291;28;20052;-42
2022/04/11 04:29:02;;;;;;;1.75;1.13;;;;;;;2.25;100.00;94850.22;5063988;28;20047;-44
2022/04/11 04:31:34;;;;;;;7.35;2.97;;;;;;;2.28;100.00;94857.56;5062373;28;20048;-43
2022/04/11 04:34:04;;;;;;;2.85;1.80;;;;;;;2.29;100.00;94859.19;5061841;28;20048;-43
2022/04/11 04:36:31;;;;;;;2.30;1.90;;;;;;;2.33;100.00;94864.75;5062118;28;20127;-44
2022/04/11 04:39:02;;;;;;;4.20;2.42;;;;;;;2.32;100.00;94863.94;5063283;28;20117;-48
2022/04/11 04:41:32;;;;;;;3.53;1.98;;;;;;;2.29;100.00;94869.47;5062681;28;20443;-46
2022/04/11 04:43:59;;;;;;;2.47;1.73;;;;;;;2.34;100.00;94871.47;5061215;28;20052;-43
2022/04/11 04:46:26;;;;;;;3.80;1.73;;;;;;;2.37;100.00;94879.63;5061958;28;20052;-45
2022/04/11 04:49:00;;;;;;;2.88;1.60;;;;;;;2.33;100.00;94875.03;5063722;28;20040;-44
2022/04/11 04:51:28;;;;;;;3.30;2.42;;;;;;;2.40;100.00;94879.28;5062076;28;20048;-44
2022/04/11 04:54:01;;;;;;;6.53;2.80;;;;;;;2.40;100.00;94881.84;5063290;28;20456;-43
2022/04/11 04:56:31;;;;;;;3.17;1.92;;;;;;;2.46;100.00;94890.63;5062963;28;20423;-46
2022/04/11 04:59:03;;;;;;;3.30;1.98;;;;;;;2.47;100.00;94893.00;5065896;28;20052;-44
2022/04/11 05:01:30;;;;;;;5.97;2.42;;;;;;;2.47;100.00;94895.59;5065897;28;20513;-46
2022/04/11 05:03:58;;;;;;;3.30;2.10;;;;;;;2.55;100.00;94899.03;5066287;28;20041;-44
2022/04/11 05:06:30;;;;;;;3.75;2.35;;;;;;;2.62;100.00;94905.06;5066021;28;20036;-43
2022/04/11 05:08:57;;;;;;;2.33;1.52;;;;;;;2.60;100.00;94912.16;5065953;28;20121;-43
2022/04/11 05:11:24;;;;;;;3.17;2.20;;;;;;;2.60;100.00;94897.53;5066987;28;20035;-45
2022/04/11 05:13:51;;;;;;;5.68;2.33;;;;;;;2.59;100.00;94911.38;5065688;28;20383;-44
2022/04/11 05:16:23;;;;;;;2.45;1.65;;;;;;;2.62;100.00;94916.13;5065190;28;20570;-43
2022/04/11 05:18:51;;;;;;;7.90;1.90;;;;;;;2.64;100.00;94909.03;5065775;28;20048;-46
2022/04/11 05:21:18;;;;;;;2.78;1.85;;;;;;;2.67;100.00;94913.03;5065209;28;20044;-42
2022/04/11 05:23:45;;;;;;;3.38;1.90;;;;;;;2.76;100.00;94921.44;5064532;28;20047;-44
2022/04/11 05:26:11;;;;;;;3.72;2.30;;;;;;;2.79;100.00;94915.94;5064249;28;20132;-43
2022/04/11 05:28:39;;;;;;;4.25;2.90;;;;;;;2.93;100.00;94919.47;5063346;28;20041;-46
2022/04/11 05:31:08;;;;;;;3.17;2.10;;;;;;;2.98;100.00;94924.88;5065218;28;20513;-44
2022/04/11 05:33:38;;;;;;;3.78;2.72;;;;;;;2.98;100.00;94925.66;5064741;28;20051;-49
2022/04/11 05:36:09;;;;;;;4.88;1.92;;;;;;;3.04;100.00;94926.69;5064004;28;20064;-44
2022/04/11 05:38:36;;;;;;;3.65;1.98;;;;;;;3.06;100.00;94935.03;5064429;28;20441;-43
2022/04/11 05:41:04;;;;;;;2.80;1.90;;;;;;;3.16;100.00;94932.97;5065593;28;20075;-43
2022/04/11 05:43:41;;;;;;;4.63;2.17;;;;;;;3.28;100.00;94940.22;5063053;28;20152;-42
2022/04/11 05:46:09;;;;;;;4.13;2.65;;;;;;;3.25;100.00;94941.38;5064787;28;20478;-43
2022/04/11 05:48:40;;;;;;;5.18;2.65;;;;;;;3.24;100.00;94935.44;5062735;28;20048;-44
2022/04/11 05:51:07;;;;;;;3.25;2.38;;;;;;;3.32;100.00;94931.16;5062621;28;20105;-43
2022/04/11 05:53:34;;;;;;;7.90;3.53;;;;;;;3.32;100.00;94936.31;5067300;28;20037;-45
2022/04/11 05:56:01;;;;;;;6.95;3.22;;;;;;;3.38;100.00;94938.16;5065971;28;20079;-44
2022/04/11 05:58:28;;;;;;;5.13;2.83;;;;;;;3.43;100.00;94938.41;5064459;28;20048;-44
2022/04/11 06:00:57;;;;;;;4.78;2.80;;;;;;;3.34;100.00;94931.78;5067925;28;20407;-47
2022/04/11 06:03:24;;;;;;;6.03;3.13;;;;;;;3.48;100.00;94943.78;5064475;28;20045;-46
2022/04/11 06:05:52;;;;;;;5.53;4.25;;;;;;;3.54;100.00;94950.78;5064682;28;20624;-44
2022/04/11 06:08:19;;;;;;;6.43;3.97;;;;;;;3.49;100.00;94953.09;5064135;28;20044;-44
2022/04/11 06:10:46;;;;;;;16.85;7.47;;;;;;;3.50;100.00;94954.72;5064198;28;20056;-44
2022/04/11 06:13:18;;;;;;;22.73;9.63;;;;;;;3.49;100.00;94953.09;5064255;28;20068;-43
2022/04/11 06:15:47;;;;;;;29.35;10.13;;;;;;;3.58;100.00;94946.88;5064453;28;20044;-45
2022/04/11 06:18:14;;;;;;;16.77;8.57;;;;;;;3.53;100.00;94949.19;5064555;28;20060;-47
2022/04/11 06:20:43;;;;;;;11.40;6.00;;;;;;;3.52;100.00;94952.75;5064743;28;20534;-43
2022/04/11 06:23:11;;;;;;;10.38;4.90;;;;;;;3.53;100.00;94949.19;5064716;28;20040;-48
2022/04/11 06:25:38;;;;;;;12.25;6.82;;;;;;;3.62;100.00;94948.09;5064487;28;20531;-49
2022/04/11 06:28:06;;;;;;;16.77;8.45;;;;;;;3.67;100.00;94959.59;5064311;28;20059;-43
2022/04/11 06:30:33;;;;;;;8.35;5.25;;;;;;;3.67;100.00;94965.56;5067383;28;20056;-46
2022/04/11 06:32:59;;;;;;;6.03;4.15;;;;;;;3.62;100.00;94963.53;5066262;28;20040;-45
2022/04/11 06:35:26;;;;;;;10.20;3.88;;;;;;;3.58;100.00;94962.31;5064470;28;20132;-44
2022/04/11 06:37:53;;;;;;;13.10;5.57;;;;;;;3.59;100.00;94971.63;5065292;28;20498;-45
2022/04/11 06:40:21;;;;;;;9.20;5.00;;;;;;;3.55;100.00;94970.41;5064132;28;20074;-44
2022/04/11 06:42:49;;;;;;;11.73;4.85;;;;;;;3.58;100.00;94977.78;5063663;28;20159;-46
2022/04/11 06:45:34;;;;;;;5.22;3.33;;;;;;;3.66;100.00;94968.34;5065585;28;20115;-45
2022/04/11 06:48:04;;;;;;;7.68;4.63;;;;;;;3.72;100.00;94978.69;5064055;28;20127;-49
2022/04/11 06:50:31;;;;;;;7.72;4.70;;;;;;;3.73;100.00;94988.03;5065006;28;20036;-45
2022/04/11 06:52:58;;;;;;;15.48;8.75;;;;;;;3.84;100.00;94991.88;5065266;28;20072;-47
2022/04/11 06:55:25;;;;;;;7.78;4.93;;;;;;;3.89;100.00;94994.72;5059821;28;20071;-45
2022/04/11 06:57:52;;;;;;;6.50;4.35;;;;;;;3.95;100.00;94993.16;5063168;28;20509;-43
2022/04/11 07:00:18;;;;;;;8.95;5.38;;;;;;;4.08;100.00;94982.16;5063127;28;20056;-45
2022/04/11 07:02:45;;;;;;;8.13;3.92;;;;;;;4.02;100.00;94989.66;5065833;28;20060;-48
2022/04/11 07:05:12;;;;;;;7.93;3.85;;;;;;;4.11;100.00;94984.38;5061726;28;20057;-47
2022/04/11 07:07:39;;;;;;;10.20;5.97;;;;;;;4.30;100.00;94995.81;5064795;28;20032;-48
2022/04/11 07:10:07;;;;;;;8.90;6.30;;;;;;;4.52;100.00;94993.97;5063329;28;20529;-45
2022/04/11 07:12:38;;;;;;;6.78;4.20;;;;;;;4.67;100.00;94997.25;5065602;28;20044;-44
2022/04/11 07:15:06;;;;;;;6.82;4.78;;;;;;;4.74;98.81;95008.41;5063904;28;20076;-45
2022/04/11 07:17:32;;;;;;;10.15;6.53;;;;;;;5.01;100.00;95003.38;5063550;28;20711;-47
2022/04/11 07:19:59;;;;;;;9.35;5.43;;;;;;;5.31;99.46;95021.16;5061773;28;20052;-49
2022/04/11 07:22:26;;;;;;;10.70;6.25;;;;;;;5.44;97.92;95008.31;5063447;28;20433;-46
2022/04/11 07:24:53;;;;;;;6.65;3.42;;;;;;;5.66;93.02;94995.25;5062059;28;20611;-51
2022/04/11 07:27:20;;;;;;;10.57;4.63;;;;;;;5.89;93.76;95003.44;5062872;28;20044;-46
2022/04/11 07:29:46;;;;;;;7.90;3.78;;;;;;;5.96;92.16;95005.25;5063073;28;20052;-46
2022/04/11 07:32:13;;;;;;;11.23;3.83;;;;;;;6.11;92.43;95003.28;5063530;28;20460;-48
2022/04/11 07:34:40;;;;;;;6.40;4.40;;;;;;;6.40;93.42;95006.47;5065614;28;20056;-47
2022/04/11 07:37:07;;;;;;;2.83;1.77;;;;;;;6.55;86.52;94994.09;5062310;28;20679;-47
2022/04/11 07:39:35;;;;;;;6.30;2.65;;;;;;;6.50;84.19;95012.06;5062398;28;20052;-47
2022/04/11 07:42:01;;;;;;;3.65;2.38;;;;;;;6.70;86.77;95012.81;5064821;28;20184;-46
2022/04/11 07:44:28;;;;;;;3.88;2.25;;;;;;;6.80;84.45;95009.00;5063724;28;20052;-46
2022/04/11 07:46:55;;;;;;;7.78;3.22;;;;;;;6.86;85.01;94990.06;5064268;28;20044;-46
2022/04/11 07:49:22;;;;;;;9.43;3.15;;;;;;;7.14;85.66;95027.84;5065089;28;20114;-47
2022/04/11 07:51:48;;;;;;;7.70;3.50;;;;;;;7.04;85.05;95018.72;5064569;28;20133;-48
2022/04/11 07:54:15;;;;;;;7.53;3.65;;;;;;;6.66;86.19;95010.81;5064708;28;20540;-50
2022/04/11 07:56:42;;;;;;;7.28;2.70;;;;;;;6.36;84.46;95023.41;5064071;28;20055;-48
2022/04/11 07:59:09;;;;;;;9.13;3.67;;;;;;;6.26;86.50;95021.19;5063736;28;20110;-45
2022/04/11 08:01:35;;;;;;;10.75;3.67;;;;;;;6.37;88.97;95019.81;5060486;28;20056;-48
2022/04/11 08:04:02;;;;;;;5.40;2.75;;;;;;;6.52;86.36;95025.59;5064654;28;20036;-47
2022/04/11 08:06:29;;;;;;;4.72;2.60;;;;;;;6.44;82.38;95028.34;5063419;28;20106;-46
2022/04/11 08:08:57;;;;;;;7.80;2.55;;;;;;;6.76;86.46;95036.31;5063530;28;20048;-46
2022/04/11 08:11:25;;;;;;;5.50;3.00;;;;;;;6.81;83.72;95039.09;5063117;28;20494;-46
2022/04/11 08:13:52;;;;;;;6.70;2.60;;;;;;;6.83;82.25;95043.06;5063248;28;20044;-48
2022/04/11 08:16:19;;;;;;;3.97;2.90;;;;;;;7.05;81.65;95048.78;5063759;28;20098;-45
2022/04/11 08:18:46;;;;;;;4.60;2.60;;;;;;;6.94;78.02;95070.13;5063947;28;20110;-47
2022/04/11 08:21:12;;;;;;;4.63;2.65;;;;;;;6.72;81.52;95050.63;5063709;28;20040;-46
2022/04/11 08:23:39;;;;;;;5.22;2.80;;;;;;;6.67;78.86;95062.38;5063573;28;20093;-47
2022/04/11 08:26:06;;;;;;;8.05;3.63;;;;;;;6.69;76.10;95072.53;5063663;28;20161;-46
2022/04/11 08:28:33;;;;;;;10.23;4.25;;;;;;;6.70;78.26;95056.81;5063622;28;20049;-45
2022/04/11 08:31:00;;;;;;;9.00;5.22;;;;;;;6.81;78.17;95064.97;5061643;28;20036;-46
2022/04/11 08:33:26;;;;;;;5.28;3.28;;;;;;;6.61;74.79;95070.16;5063488;28;20055;-48
2022/04/11 08:35:53;;;;;;;5.18;3.20;;;;;;;6.44;76.58;95074.94;5063917;28;20106;-49
2022/04/11 08:38:21;;;;;;;6.32;3.85;;;;;;;6.40;76.53;95078.91;5065025;28;20047;-47
2022/04/11 08:40:50;;;;;;;5.75;4.22;;;;;;;6.53;76.66;95063.38;5065069;28;20051;-48
2022/04/11 08:43:22;;;;;;;6.88;4.35;;;;;;;6.53;76.33;95073.75;5063362;28;20040;-47
2022/04/11 08:45:51;;;;;;;11.65;6.47;;;;;;;6.37;76.01;95076.72;5063421;28;20118;-47
2022/04/11 08:48:21;;;;;;;8.20;4.97;;;;;;;6.31;77.32;95071.34;5063988;28;20063;-47
2022/04/11 08:50:48;;;;;;;5.63;3.88;;;;;;;6.40;78.33;95078.91;5063793;28;20044;-48
2022/04/11 08:53:20;;;;;;;9.55;4.28;;;;;;;6.63;75.41;95065.59;5063459;28;20036;-46
2022/04/11 08:55:48;;;;;;;9.10;3.80;;;;;;;6.67;75.48;95062.38;5064628;28;20170;-46
2022/04/11 08:58:15;;;;;;;14.32;7.57;;;;;;;6.78;75.77;95065.38;5062148;28;20051;-45
2022/04/11 09:00:42;;;;;;;6.95;4.07;;;;;;;7.15;76.55;95050.16;5062289;28;20062;-44
2022/04/11 09:03:09;;;;;;;4.43;2.97;;;;;;;7.30;70.40;95068.84;5063375;28;20053;-45
2022/04/11 09:05:36;;;;;;;7.38;3.15;;;;;;;7.69;70.80;95067.13;5063057;28;20044;-46
2022/04/11 09:08:03;;;;;;;8.95;3.50;;;;;;;7.93;68.64;95082.94;5062968;28;20060;-46
2022/04/11 09:10:38;;;;;;;6.00;4.05;;;;;;;7.58;70.68;95075.50;5062610;28;20052;-47
2022/04/11 09:13:07;;;;;;;6.35;3.83;;;;;;;7.36;71.90;95082.78;5061854;28;20460;-47
2022/04/11 09:15:45;;;;;;;5.75;3.72;;;;;;;7.11;72.43;95074.88;5062957;28;20077;-48
2022/04/11 09:18:11;;;;;;;6.90;3.72;;;;;;;6.66;73.69;95089.28;5062272;28;20116;-46
2022/04/11 09:20:43;;;;;;;7.13;3.53;;;;;;;6.51;76.07;95086.09;5062586;28;20052;-44
2022/04/11 09:23:20;;;;;;;9.10;5.40;;;;;;;6.38;77.84;95076.53;5062334;28;20065;-47
2022/04/11 09:25:47;;;;;;;9.18;5.97;;;;;;;6.38;81.09;95078.31;5062376;28;20760;-51
2022/04/11 09:28:14;;;;;;;5.55;4.30;;;;;;;6.18;78.90;95079.09;5062528;28;20059;-45
2022/04/11 09:30:43;;;;;;;8.98;6.07;;;;;;;6.18;80.03;95086.06;5061272;28;20044;-46
2022/04/11 09:33:11;;;;;;;10.10;6.00;;;;;;;6.34;80.87;95084.88;5062284;28;20139;-45
2022/04/11 09:35:49;;;;;;;19.35;8.90;;;;;;;6.47;79.68;95084.91;5062283;28;20048;-45
2022/04/11 09:38:20;;;;;;;20.10;9.85;;;;;;;6.69;77.31;95083.69;5063226;28;20041;-46
2022/04/11 09:40:49;;;;;;;8.45;5.00;;;;;;;6.67;74.12;95096.03;5064719;28;20040;-46
2022/04/11 09:43:23;;;;;;;19.27;8.85;;;;;;;6.72;75.07;95092.84;5063378;28;20051;-45
2022/04/11 09:45:51;;;;;;;8.70;4.15;;;;;;;6.64;70.56;95080.91;5065569;28;20048;-43
2022/04/11 09:48:21;;;;;;;14.80;6.30;;;;;;;6.90;70.87;95100.00;5065567;28;20032;-48
2022/04/11 09:50:49;;;;;;;6.63;4.75;;;;;;;6.95;69.92;95102.81;5066052;28;20527;-47
2022/04/11 09:53:24;;;;;;;5.35;3.50;;;;;;;7.16;68.30;95104.34;5066508;28;20045;-50
2022/04/11 09:55:52;;;;;;;5.55;4.18;;;;;;;7.54;68.92;95090.69;5065735;28;20573;-47
2022/04/11 09:58:21;;;;;;;5.93;3.28;;;;;;;7.64;67.00;95095.44;5066033;28;20055;-49
2022/04/11 10:00:50;;;;;;;8.43;5.35;;;;;;;7.71;68.93;95096.22;5068137;28;20098;-48
2022/04/11 10:03:21;;;;;;;23.15;8.52;;;;;;;7.99;68.10;95100.25;5066144;28;20056;-48
2022/04/11 10:05:49;;;;;;;36.63;16.73;;;;;;;7.82;68.34;95103.34;5065997;28;20043;-46
2022/04/11 10:08:16;;;;;;;30.33;14.95;;;;;;;7.60;67.12;95089.09;5066473;28;20505;-47
2022/04/11 10:10:42;;;;;;;12.25;5.53;;;;;;;7.22;68.06;95088.00;5066040;28;20107;-47
2022/04/11 10:13:14;;;;;;;32.70;12.80;;;;;;;7.04;70.76;95101.59;5067053;28;20056;-48
2022/04/11 10:15:45;;;;;;;35.33;11.70;;;;;;;7.16;72.21;95090.59;5066206;28;22570;-47
2022/04/11 10:18:15;;;;;;;9.98;5.32;;;;;;;7.13;70.20;95088.41;5064874;28;20060;-50
2022/04/11 10:20:49;;;;;;;23.75;8.60;;;;;;;7.22;71.04;95082.00;5065613;28;20048;-46
2022/04/11 10:23:58;;;;;;;10.48;5.28;;;;;;;7.45;69.81;95087.53;5065691;28;20044;-45
2022/04/11 10:26:39;;;;;;;23.58;7.32;;;;;;;7.46;66.88;95086.53;5066026;28;20044;-51
2022/04/11 10:29:06;;;;;;;8.45;5.05;;;;;;;7.57;67.98;95097.28;5064603;28;20044;-45
2022/04/11 10:31:36;;;;;;;17.45;6.72;;;;;;;7.56;66.83;95103.44;5063712;28;20487;-48
2022/04/11 10:34:03;;;;;;;14.13;6.90;;;;;;;7.56;64.71;95085.28;5059740;28;20040;-46
2022/04/11 10:36:56;;;;;;;8.85;4.57;;;;;;;7.67;66.25;95087.25;5063995;28;20419;-48
2022/04/11 10:39:24;;;;;;;15.55;8.15;;;;;;;7.95;67.77;95076.53;5064765;28;20068;-49
2022/04/11 10:41:57;;;;;;;7.95;4.43;;;;;;;8.26;65.20;95081.94;5064193;28;20486;-48
2022/04/11 10:44:42;;;;;;;11.07;5.57;;;;;;;8.28;62.60;95087.72;5060768;28;20718;-44
2022/04/11 10:47:09;;;;;;;5.07;2.70;;;;;;;8.32;64.87;95070.72;5064360;28;20049;-52
2022/04/11 10:49:44;;;;;;;8.95;3.83;;;;;;;8.50;61.55;95083.00;5066005;28;20048;-45
2022/04/11 10:52:27;;;;;;;8.07;4.07;;;;;;;8.34;60.39;95094.69;5066652;28;20060;-46
2022/04/11 10:54:55;;;;;;;7.88;4.28;;;;;;;8.16;60.24;95087.63;5061907;28;20502;-46
2022/04/11 10:57:32;;;;;;;8.32;2.78;;;;;;;7.81;63.15;95096.59;5063431;28;20067;-47
2022/04/11 11:00:14;;;;;;;9.90;5.35;;;;;;;7.76;63.92;95093.81;5063604;28;20040;-46
2022/04/11 11:02:53;;;;;;;6.38;4.53;;;;;;;7.84;63.78;95096.16;5062068;28;20052;-48
2022/04/11 11:05:44;;;;;;;5.43;3.53;;;;;;;8.26;64.41;95087.94;5064125;28;20049;-47
2022/04/11 11:08:11;;;;;;;4.80;2.78;;;;;;;8.49;62.05;95090.00;5062500;28;20096;-47
2022/04/11 11:10:46;;;;;;;6.45;3.97;;;;;;;8.58;58.26;95090.53;5062513;28;20076;-48
2022/04/11 11:13:39;;;;;;;5.03;3.25;;;;;;;8.49;55.93;95095.19;5064419;28;20545;-46
2022/04/11 11:16:12;;;;;;;4.18;2.67;;;;;;;8.58;56.14;95101.72;5063599;28;20094;-45
2022/04/11 11:18:51;;;;;;;4.32;2.05;;;;;;;8.95;55.33;95101.03;5064866;28;20055;-45
2022/04/11 11:21:47;;;;;;;8.00;3.80;;;;;;;9.21;53.06;95094.78;5065885;28;20044;-44
2022/04/11 11:24:15;;;;;;;13.27;6.07;;;;;;;9.22;55.02;95096.38;5059313;28;20056;-46
2022/04/11 11:26:52;;;;;;;7.70;5.20;;;;;;;9.05;55.57;95095.34;5064314;28;20413;-47
2022/04/11 11:29:20;;;;;;;14.50;6.72;;;;;;;8.88;57.26;95111.47;5064435;28;20468;-45
2022/04/11 11:31:50;;;;;;;6.90;4.40;;;;;;;8.70;54.63;95101.06;5062762;28;20127;-45
2022/04/11 11:34:18;;;;;;;10.05;6.10;;;;;;;8.64;55.78;95092.28;5064541;28;20115;-46
2022/04/11 11:36:46;;;;;;;9.93;6.13;;;;;;;8.65;55.33;95095.69;5064110;28;20051;-50
2022/04/11 11:39:19;;;;;;;12.10;6.72;;;;;;;8.73;57.15;95092.81;5063308;28;20498;-46
2022/04/11 11:41:54;;;;;;;5.50;3.65;;;;;;;8.63;51.97;95097.72;5064618;28;20067;-47
2022/04/11 11:44:21;;;;;;;6.32;5.00;;;;;;;8.61;54.75;95103.91;5064402;28;20036;-46